createdAt,value
2017-07-08T00:00:06.819Z,20.9
2017-07-08T00:00:16.816Z,20.9
2017-07-08T00:00:26.819Z,20.9
2017-07-08T00:00:36.803Z,20.9
2017-07-08T00:00:47.139Z,20.9
2017-07-08T00:00:56.456Z,20.9
2017-07-08T00:01:07.125Z,20.9
2017-07-08T00:01:17.123Z,20.9
2017-07-08T00:01:27.121Z,20.9
2017-07-08T00:01:36.448Z,20.9
2017-07-08T00:01:47.104Z,20.9
2017-07-08T00:01:56.768Z,20.9
2017-07-08T00:02:07.100Z,20.9
2017-07-08T00:02:17.091Z,20.9
2017-07-08T00:02:26.758Z,20.9
2017-07-08T00:02:37.085Z,20.9
2017-07-08T00:02:47.079Z,20.9
2017-07-08T00:02:56.743Z,20.9
2017-07-08T00:03:06.739Z,20.9
2017-07-08T00:03:16.401Z,20.9
2017-07-08T00:03:26.726Z,20.9
2017-07-08T00:03:36.714Z,20.9
2017-07-08T00:03:47.051Z,20.9
2017-07-08T00:03:56.714Z,20.9
2017-07-08T00:04:07.040Z,20.9
2017-07-08T00:04:16.365Z,20.9
2017-07-08T00:04:26.706Z,20.9
2017-07-08T00:04:36.693Z,20.9
2017-07-08T00:04:46.690Z,20.9
2017-07-08T00:04:57.032Z,20.9
2017-07-08T00:05:07.018Z,20.9
2017-07-08T00:05:16.337Z,20.9
2017-07-08T00:05:27.337Z,20.9
2017-07-08T00:05:36.663Z,20.9
2017-07-08T00:05:46.662Z,20.9
2017-07-08T00:05:56.988Z,20.9
2017-07-08T00:06:06.650Z,20.9
2017-07-08T00:06:16.644Z,20.9
2017-07-08T00:06:26.980Z,20.9
2017-07-08T00:06:36.303Z,20.9
2017-07-08T00:06:46.631Z,20.9
2017-07-08T00:06:56.626Z,20.9
2017-07-08T00:07:06.959Z,20.9
2017-07-08T00:07:16.618Z,20.9
2017-07-08T00:07:27.282Z,20.9
2017-07-08T00:07:36.945Z,20.9
2017-07-08T00:07:46.602Z,20.9
2017-07-08T00:07:57.265Z,20.9
2017-07-08T00:08:06.932Z,20.9
2017-07-08T00:08:16.924Z,20.9
2017-07-08T00:08:26.585Z,20.9
2017-07-08T00:08:36.244Z,20.9
2017-07-08T00:08:46.578Z,20.9
2017-07-08T00:08:56.570Z,20.9
2017-07-08T00:09:06.570Z,20.9
2017-07-08T00:09:16.901Z,20.9
2017-07-08T00:09:26.558Z,20.9
2017-07-08T00:09:37.221Z,20.9
2017-07-08T00:09:46.885Z,20.9
2017-07-08T00:09:56.881Z,20.9
2017-07-08T00:10:06.873Z,20.9
2017-07-08T00:10:16.535Z,20.9
2017-07-08T00:10:26.530Z,20.9
2017-07-08T00:10:36.189Z,20.9
2017-07-08T00:10:46.521Z,20.8
2017-07-08T00:10:56.852Z,20.8
2017-07-08T00:11:06.841Z,20.8
2017-07-08T00:11:16.502Z,20.9
2017-07-08T00:11:26.500Z,20.9
2017-07-08T00:11:37.169Z,20.9
2017-07-08T00:11:46.491Z,20.9
2017-07-08T00:11:56.485Z,20.9
2017-07-08T00:12:06.818Z,20.9
2017-07-08T00:12:17.143Z,20.9
2017-07-08T00:12:26.804Z,20.9
2017-07-08T00:12:36.468Z,20.9
2017-07-08T00:12:46.462Z,20.9
2017-07-08T00:12:56.790Z,20.9
2017-07-08T00:13:06.788Z,20.9
2017-07-08T00:13:16.784Z,20.9
2017-07-08T00:13:26.445Z,20.9
2017-07-08T00:13:36.773Z,20.9
2017-07-08T00:13:46.437Z,20.9
2017-07-08T00:13:56.430Z,20.9
2017-07-08T00:14:06.092Z,20.9
2017-07-08T00:14:16.753Z,20.9
2017-07-08T00:14:26.747Z,20.9
2017-07-08T00:14:36.746Z,20.9
2017-07-08T00:14:46.406Z,20.9
2017-07-08T00:14:57.066Z,20.9
2017-07-08T00:15:07.067Z,20.9
2017-07-08T00:15:16.718Z,20.9
2017-07-08T00:15:27.056Z,20.9
2017-07-08T00:15:36.378Z,20.9
2017-07-08T00:15:46.045Z,20.9
2017-07-08T00:15:56.370Z,20.9
2017-07-08T00:16:06.367Z,20.9
2017-07-08T00:16:17.032Z,20.8
2017-07-08T00:16:26.359Z,20.8
2017-07-08T00:16:36.354Z,20.8
2017-07-08T00:16:46.681Z,20.9
2017-07-08T00:16:56.680Z,20.9
2017-07-08T00:17:06.345Z,20.9
2017-07-08T00:17:16.335Z,20.9
2017-07-08T00:17:26.663Z,20.9
2017-07-08T00:17:36.663Z,20.9
2017-07-08T00:17:46.658Z,20.9
2017-07-08T00:17:55.982Z,20.9
2017-07-08T00:18:05.978Z,20.8
2017-07-08T00:18:16.308Z,20.9
2017-07-08T00:18:26.639Z,20.8
2017-07-08T00:18:37.327Z,20.8
2017-07-08T00:18:46.293Z,20.8
2017-07-08T00:18:56.286Z,20.8
2017-07-08T00:19:06.285Z,20.8
2017-07-08T00:19:15.944Z,20.8
2017-07-08T00:19:26.945Z,20.9
2017-07-08T00:19:35.935Z,20.9
2017-07-08T00:19:46.935Z,20.8
2017-07-08T00:19:56.593Z,20.8
2017-07-08T00:20:05.917Z,20.8
2017-07-08T00:20:16.250Z,20.9
2017-07-08T00:20:26.913Z,20.9
2017-07-08T00:20:36.577Z,20.9
2017-07-08T00:20:46.569Z,20.8
2017-07-08T00:20:56.567Z,20.8
2017-07-08T00:21:06.225Z,20.8
2017-07-08T00:21:16.560Z,20.8
2017-07-08T00:21:25.887Z,20.8
2017-07-08T00:21:35.879Z,20.8
2017-07-08T00:21:46.917Z,20.8
2017-07-08T00:21:56.207Z,20.8
2017-07-08T00:22:05.864Z,20.8
2017-07-08T00:22:15.861Z,20.8
2017-07-08T00:22:26.526Z,20.8
2017-07-08T00:22:36.185Z,20.8
2017-07-08T00:22:45.842Z,20.8
2017-07-08T00:22:55.839Z,20.8
2017-07-08T00:23:05.836Z,20.8
2017-07-08T00:23:16.501Z,20.8
2017-07-08T00:23:26.154Z,20.8
2017-07-08T00:23:35.820Z,20.8
2017-07-08T00:23:45.818Z,20.8
2017-07-08T00:23:56.144Z,20.8
2017-07-08T00:24:05.804Z,20.8
2017-07-08T00:24:16.468Z,20.8
2017-07-08T00:24:25.799Z,20.8
2017-07-08T00:24:36.130Z,20.8
2017-07-08T00:24:46.123Z,20.8
2017-07-08T00:24:56.788Z,20.8
2017-07-08T00:25:06.118Z,20.8
2017-07-08T00:25:16.772Z,20.8
2017-07-08T00:25:26.101Z,20.8
2017-07-08T00:25:36.436Z,20.8
2017-07-08T00:25:46.432Z,20.8
2017-07-08T00:25:56.424Z,20.8
2017-07-08T00:26:06.087Z,20.8
2017-07-08T00:26:16.765Z,20.8
2017-07-08T00:26:26.075Z,20.8
2017-07-08T00:26:36.737Z,20.8
2017-07-08T00:26:46.742Z,20.8
2017-07-08T00:26:55.724Z,20.8
2017-07-08T00:27:06.066Z,20.8
2017-07-08T00:27:16.387Z,20.8
2017-07-08T00:27:26.051Z,20.8
2017-07-08T00:27:36.044Z,20.8
2017-07-08T00:27:46.370Z,20.8
2017-07-08T00:27:56.377Z,20.8
2017-07-08T00:28:06.028Z,20.8
2017-07-08T00:28:15.685Z,20.8
2017-07-08T00:28:25.687Z,20.8
2017-07-08T00:28:36.013Z,20.7
2017-07-08T00:28:46.009Z,20.7
2017-07-08T00:28:56.679Z,20.7
2017-07-08T00:29:05.663Z,20.7
2017-07-08T00:29:15.993Z,20.7
2017-07-08T00:29:26.325Z,20.7
2017-07-08T00:29:35.650Z,20.7
2017-07-08T00:29:45.982Z,20.7
2017-07-08T00:29:56.314Z,20.7
2017-07-08T00:30:05.639Z,20.7
2017-07-08T00:30:15.635Z,20.7
2017-07-08T00:30:26.303Z,20.7
2017-07-08T00:30:35.957Z,20.7
2017-07-08T00:30:46.289Z,20.7
2017-07-08T00:30:55.608Z,20.7
2017-07-08T00:31:05.938Z,20.7
2017-07-08T00:31:16.612Z,20.7
2017-07-08T00:31:25.934Z,20.7
2017-07-08T00:31:36.261Z,20.7
2017-07-08T00:31:46.261Z,20.7
2017-07-08T00:31:55.588Z,20.7
2017-07-08T00:32:05.578Z,20.7
2017-07-08T00:32:15.578Z,20.7
2017-07-08T00:32:25.574Z,20.7
2017-07-08T00:32:36.238Z,20.7
2017-07-08T00:32:45.559Z,20.7
2017-07-08T00:32:56.228Z,20.7
2017-07-08T00:33:06.223Z,20.7
2017-07-08T00:33:15.550Z,20.7
2017-07-08T00:33:25.543Z,20.7
2017-07-08T00:33:36.208Z,20.7
2017-07-08T00:33:46.540Z,20.7
2017-07-08T00:33:56.200Z,20.7
2017-07-08T00:34:06.189Z,20.7
2017-07-08T00:34:15.849Z,20.7
2017-07-08T00:34:25.845Z,20.7
2017-07-08T00:34:35.508Z,20.7
2017-07-08T00:34:45.510Z,20.7
2017-07-08T00:34:56.169Z,20.7
2017-07-08T00:35:05.828Z,20.7
2017-07-08T00:35:16.161Z,20.7
2017-07-08T00:35:25.820Z,20.7
2017-07-08T00:35:35.831Z,20.7
2017-07-08T00:35:45.814Z,20.7
2017-07-08T00:35:55.806Z,20.7
2017-07-08T00:36:05.799Z,20.7
2017-07-08T00:36:15.855Z,20.7
2017-07-08T00:36:26.121Z,20.7
2017-07-08T00:36:35.451Z,20.6
2017-07-08T00:36:46.117Z,20.6
2017-07-08T00:36:55.778Z,20.6
2017-07-08T00:37:05.772Z,20.6
2017-07-08T00:37:15.433Z,20.6
2017-07-08T00:37:25.430Z,20.6
2017-07-08T00:37:35.427Z,20.7
2017-07-08T00:37:45.416Z,20.7
2017-07-08T00:37:55.749Z,20.7
2017-07-08T00:38:05.742Z,20.7
2017-07-08T00:38:15.742Z,20.6
2017-07-08T00:38:26.070Z,20.6
2017-07-08T00:38:35.733Z,20.6
2017-07-08T00:38:45.722Z,20.6
2017-07-08T00:38:56.394Z,20.6
2017-07-08T00:39:06.052Z,20.7
2017-07-08T00:39:16.048Z,20.7
2017-07-08T00:39:25.369Z,20.7
2017-07-08T00:39:36.374Z,20.7
2017-07-08T00:39:46.032Z,20.6
2017-07-08T00:39:56.024Z,20.7
2017-07-08T00:40:06.023Z,20.7
2017-07-08T00:40:16.017Z,20.7
2017-07-08T00:40:25.345Z,20.7
2017-07-08T00:40:35.677Z,20.6
2017-07-08T00:40:46.000Z,20.6
2017-07-08T00:40:56.000Z,20.7
2017-07-08T00:41:05.323Z,20.6
2017-07-08T00:41:15.652Z,20.6
2017-07-08T00:41:25.985Z,20.6
2017-07-08T00:41:35.979Z,20.6
2017-07-08T00:41:45.304Z,20.7
2017-07-08T00:41:55.307Z,20.7
2017-07-08T00:42:06.301Z,20.6
2017-07-08T00:42:15.622Z,20.6
2017-07-08T00:42:25.285Z,20.6
2017-07-08T00:42:35.613Z,20.6
2017-07-08T00:42:45.610Z,20.6
2017-07-08T00:42:55.606Z,20.6
2017-07-08T00:43:05.270Z,20.6
2017-07-08T00:43:15.593Z,20.7
2017-07-08T00:43:25.587Z,20.6
2017-07-08T00:43:35.251Z,20.6
2017-07-08T00:43:45.921Z,20.6
2017-07-08T00:43:55.577Z,20.6
2017-07-08T00:44:05.241Z,20.6
2017-07-08T00:44:15.232Z,20.6
2017-07-08T00:44:25.232Z,20.6
2017-07-08T00:44:35.563Z,20.6
2017-07-08T00:44:45.898Z,20.6
2017-07-08T00:44:56.217Z,20.6
2017-07-08T00:45:05.878Z,20.6
2017-07-08T00:45:15.876Z,20.6
2017-07-08T00:45:25.538Z,20.6
2017-07-08T00:45:35.864Z,20.5
2017-07-08T00:45:45.864Z,20.5
2017-07-08T00:45:55.854Z,20.5
2017-07-08T00:46:05.191Z,20.5
2017-07-08T00:46:15.845Z,20.5
2017-07-08T00:46:25.507Z,20.5
2017-07-08T00:46:35.165Z,20.5
2017-07-08T00:46:45.162Z,20.5
2017-07-08T00:46:55.494Z,20.5
2017-07-08T00:47:05.487Z,20.5
2017-07-08T00:47:15.479Z,20.5
2017-07-08T00:47:26.157Z,20.5
2017-07-08T00:47:35.807Z,20.5
2017-07-08T00:47:45.803Z,20.5
2017-07-08T00:47:55.471Z,20.6
2017-07-08T00:48:05.457Z,20.5
2017-07-08T00:48:15.117Z,20.5
2017-07-08T00:48:25.113Z,20.5
2017-07-08T00:48:35.118Z,20.5
2017-07-08T00:48:45.441Z,20.5
2017-07-08T00:48:56.108Z,20.5
2017-07-08T00:49:05.770Z,20.5
2017-07-08T00:49:15.095Z,20.5
2017-07-08T00:49:25.083Z,20.5
2017-07-08T00:49:36.084Z,20.5
2017-07-08T00:49:45.075Z,20.5
2017-07-08T00:49:55.408Z,20.5
2017-07-08T00:50:05.405Z,20.5
2017-07-08T00:50:15.067Z,20.5
2017-07-08T00:50:26.065Z,20.5
2017-07-08T00:50:35.445Z,20.5
2017-07-08T00:50:45.047Z,20.5
2017-07-08T00:50:55.710Z,20.5
2017-07-08T00:51:06.047Z,20.5
2017-07-08T00:51:16.041Z,20.5
2017-07-08T00:51:26.384Z,20.5
2017-07-08T00:51:35.360Z,20.5
2017-07-08T00:51:45.355Z,20.5
2017-07-08T00:51:55.346Z,20.5
2017-07-08T00:52:05.342Z,20.5
2017-07-08T00:52:15.341Z,20.5
2017-07-08T00:52:25.339Z,20.5
2017-07-08T00:52:35.665Z,20.5
2017-07-08T00:52:45.660Z,20.5
2017-07-08T00:52:55.319Z,20.5
2017-07-08T00:53:05.319Z,20.5
2017-07-08T00:53:14.975Z,20.5
2017-07-08T00:53:25.974Z,20.5
2017-07-08T00:53:34.968Z,20.5
2017-07-08T00:53:45.300Z,20.4
2017-07-08T00:53:54.957Z,20.4
2017-07-08T00:54:05.290Z,20.4
2017-07-08T00:54:15.620Z,20.5
2017-07-08T00:54:25.406Z,20.5
2017-07-08T00:54:34.940Z,20.5
2017-07-08T00:54:45.268Z,20.5
2017-07-08T00:54:55.938Z,20.5
2017-07-08T00:55:04.925Z,20.4
2017-07-08T00:55:15.588Z,20.5
2017-07-08T00:55:25.588Z,20.5
2017-07-08T00:55:35.580Z,20.4
2017-07-08T00:55:44.911Z,20.4
2017-07-08T00:55:55.233Z,20.5
2017-07-08T00:56:05.228Z,20.5
2017-07-08T00:56:15.562Z,20.5
2017-07-08T00:56:25.567Z,20.5
2017-07-08T00:56:35.219Z,20.5
2017-07-08T00:56:44.874Z,20.5
2017-07-08T00:56:55.542Z,20.4
2017-07-08T00:57:04.864Z,20.4
2017-07-08T00:57:15.871Z,20.4
2017-07-08T00:57:25.198Z,20.5
2017-07-08T00:57:34.855Z,20.4
2017-07-08T00:57:44.852Z,20.4
2017-07-08T00:57:55.847Z,20.4
2017-07-08T00:58:04.838Z,20.4
2017-07-08T00:58:14.835Z,20.4
2017-07-08T00:58:25.170Z,20.4
2017-07-08T00:58:35.499Z,20.4
2017-07-08T00:58:45.488Z,20.4
2017-07-08T00:58:55.152Z,20.4
2017-07-08T00:59:05.483Z,20.4
2017-07-08T00:59:15.477Z,20.4
2017-07-08T00:59:24.804Z,20.4
2017-07-08T00:59:34.796Z,20.4
2017-07-08T00:59:45.523Z,20.4
2017-07-08T00:59:55.461Z,20.4
2017-07-08T01:00:05.115Z,20.4
2017-07-08T01:00:15.444Z,20.4
2017-07-08T01:00:25.439Z,20.4
2017-07-08T01:00:35.105Z,20.4
2017-07-08T01:00:45.099Z,20.4
2017-07-08T01:00:55.430Z,20.4
2017-07-08T01:01:04.758Z,20.4
2017-07-08T01:01:14.746Z,20.4
2017-07-08T01:01:25.075Z,20.4
2017-07-08T01:01:35.413Z,20.4
2017-07-08T01:01:45.741Z,20.4
2017-07-08T01:01:55.738Z,20.4
2017-07-08T01:02:05.398Z,20.4
2017-07-08T01:02:15.054Z,20.4
2017-07-08T01:02:24.716Z,20.4
2017-07-08T01:02:35.377Z,20.4
2017-07-08T01:02:44.703Z,20.4
2017-07-08T01:02:55.373Z,20.4
2017-07-08T01:03:05.363Z,20.4
2017-07-08T01:03:15.362Z,20.4
2017-07-08T01:03:25.361Z,20.4
2017-07-08T01:03:35.014Z,20.4
2017-07-08T01:03:45.347Z,20.4
2017-07-08T01:03:54.671Z,20.4
2017-07-08T01:04:05.340Z,20.4
2017-07-08T01:04:14.996Z,20.4
2017-07-08T01:04:25.664Z,20.4
2017-07-08T01:04:34.986Z,20.4
2017-07-08T01:04:44.980Z,20.4
2017-07-08T01:04:55.643Z,20.3
2017-07-08T01:05:05.311Z,20.4
2017-07-08T01:05:14.972Z,20.4
2017-07-08T01:05:24.964Z,20.4
2017-07-08T01:05:35.295Z,20.4
2017-07-08T01:05:44.959Z,20.3
2017-07-08T01:05:55.620Z,20.4
2017-07-08T01:06:05.284Z,20.4
2017-07-08T01:06:14.739Z,20.3
2017-07-08T01:06:24.934Z,20.3
2017-07-08T01:06:35.270Z,20.3
2017-07-08T01:06:44.929Z,20.3
2017-07-08T01:06:54.590Z,20.3
2017-07-08T01:07:04.922Z,20.3
2017-07-08T01:07:14.920Z,20.3
2017-07-08T01:07:25.239Z,20.4
2017-07-08T01:07:35.576Z,20.3
2017-07-08T01:07:44.896Z,20.3
2017-07-08T01:07:55.233Z,20.3
2017-07-08T01:08:04.891Z,20.3
2017-07-08T01:08:14.883Z,20.3
2017-07-08T01:08:24.543Z,20.3
2017-07-08T01:08:35.546Z,20.3
2017-07-08T01:08:44.872Z,20.3
2017-07-08T01:08:54.531Z,20.3
2017-07-08T01:09:05.197Z,20.3
2017-07-08T01:09:14.854Z,20.3
2017-07-08T01:09:25.523Z,20.3
2017-07-08T01:09:35.179Z,20.3
2017-07-08T01:09:44.843Z,20.3
2017-07-08T01:09:55.169Z,20.3
2017-07-08T01:10:04.830Z,20.3
2017-07-08T01:10:14.488Z,20.3
2017-07-08T01:10:25.160Z,20.3
2017-07-08T01:10:35.154Z,20.3
2017-07-08T01:10:45.149Z,20.3
2017-07-08T01:10:54.810Z,20.3
2017-07-08T01:11:04.802Z,20.2
2017-07-08T01:11:14.459Z,20.2
2017-07-08T01:11:25.124Z,20.2
2017-07-08T01:11:35.121Z,20.3
2017-07-08T01:11:45.118Z,20.3
2017-07-08T01:11:54.781Z,20.3
2017-07-08T01:12:04.446Z,20.3
2017-07-08T01:12:14.772Z,20.3
2017-07-08T01:12:24.435Z,20.3
2017-07-08T01:12:34.768Z,20.3
2017-07-08T01:12:45.089Z,20.3
2017-07-08T01:12:54.533Z,20.3
2017-07-08T01:13:04.747Z,20.3
2017-07-08T01:13:14.407Z,20.3
2017-07-08T01:13:24.736Z,20.3
2017-07-08T01:13:34.396Z,20.3
2017-07-08T01:13:44.731Z,20.2
2017-07-08T01:13:55.062Z,20.3
2017-07-08T01:14:04.381Z,20.2
2017-07-08T01:14:15.064Z,20.2
2017-07-08T01:14:24.704Z,20.2
2017-07-08T01:14:34.710Z,20.2
2017-07-08T01:14:44.699Z,20.2
2017-07-08T01:14:54.692Z,20.2
2017-07-08T01:15:04.353Z,20.2
2017-07-08T01:15:14.350Z,20.2
2017-07-08T01:15:24.680Z,20.2
2017-07-08T01:15:34.673Z,20.2
2017-07-08T01:15:45.339Z,20.2
2017-07-08T01:15:55.007Z,20.2
2017-07-08T01:16:04.659Z,20.2
2017-07-08T01:16:14.988Z,20.2
2017-07-08T01:16:24.649Z,20.2
2017-07-08T01:16:34.985Z,20.1
2017-07-08T01:16:44.977Z,20.1
2017-07-08T01:16:55.301Z,20.1
2017-07-08T01:17:05.305Z,20.1
2017-07-08T01:17:14.634Z,20.1
2017-07-08T01:17:24.615Z,20.2
2017-07-08T01:17:34.622Z,20.2
2017-07-08T01:17:44.609Z,20.2
2017-07-08T01:17:54.608Z,20.1
2017-07-08T01:18:05.012Z,20.2
2017-07-08T01:18:14.601Z,20.2
2017-07-08T01:18:24.597Z,20.1
2017-07-08T01:18:34.926Z,20.2
2017-07-08T01:18:44.586Z,20.2
2017-07-08T01:18:54.933Z,20.2
2017-07-08T01:19:04.572Z,20.2
2017-07-08T01:19:14.907Z,20.2
2017-07-08T01:19:25.234Z,20.2
2017-07-08T01:19:34.235Z,20.2
2017-07-08T01:19:44.558Z,20.2
2017-07-08T01:19:54.882Z,20.2
2017-07-08T01:20:05.217Z,20.2
2017-07-08T01:20:14.875Z,20.2
2017-07-08T01:20:24.539Z,20.2
2017-07-08T01:20:34.199Z,20.2
2017-07-08T01:20:44.527Z,20.2
2017-07-08T01:20:55.212Z,20.2
2017-07-08T01:21:04.522Z,20.2
2017-07-08T01:21:14.182Z,20.2
2017-07-08T01:21:24.510Z,20.1
2017-07-08T01:21:34.857Z,20.1
2017-07-08T01:21:44.166Z,20.1
2017-07-08T01:21:54.496Z,20.2
2017-07-08T01:22:04.493Z,20.1
2017-07-08T01:22:14.486Z,20.2
2017-07-08T01:22:24.145Z,20.2
2017-07-08T01:22:34.140Z,20.2
2017-07-08T01:22:44.469Z,20.2
2017-07-08T01:22:55.131Z,20.2
2017-07-08T01:23:04.797Z,20.2
2017-07-08T01:23:14.120Z,20.2
2017-07-08T01:23:24.119Z,20.2
2017-07-08T01:23:34.109Z,20.1
2017-07-08T01:23:44.437Z,20.1
2017-07-08T01:23:54.098Z,20.1
2017-07-08T01:24:04.434Z,20.1
2017-07-08T01:24:14.760Z,20.1
2017-07-08T01:24:24.417Z,20.1
2017-07-08T01:24:34.416Z,20.1
2017-07-08T01:24:44.417Z,20
2017-07-08T01:24:54.411Z,20
2017-07-08T01:25:04.406Z,20
2017-07-08T01:25:14.063Z,20
2017-07-08T01:25:24.729Z,20
2017-07-08T01:25:34.387Z,20
2017-07-08T01:25:44.384Z,20
2017-07-08T01:25:54.040Z,20
2017-07-08T01:26:04.372Z,20
2017-07-08T01:26:14.368Z,20
2017-07-08T01:26:24.367Z,20
2017-07-08T01:26:34.358Z,20
2017-07-08T01:26:44.689Z,20
2017-07-08T01:26:54.687Z,20
2017-07-08T01:27:04.678Z,20
2017-07-08T01:27:14.007Z,20
2017-07-08T01:27:24.668Z,20
2017-07-08T01:27:33.998Z,20
2017-07-08T01:27:44.663Z,20
2017-07-08T01:27:54.320Z,20
2017-07-08T01:28:04.317Z,20
2017-07-08T01:28:14.316Z,20
2017-07-08T01:28:24.640Z,20
2017-07-08T01:28:33.966Z,20
2017-07-08T01:28:43.959Z,20
2017-07-08T01:28:54.630Z,19.9
2017-07-08T01:29:03.955Z,19.9
2017-07-08T01:29:13.947Z,20
2017-07-08T01:29:23.942Z,19.9
2017-07-08T01:29:34.607Z,19.9
2017-07-08T01:29:44.942Z,19.9
2017-07-08T01:29:54.600Z,20
2017-07-08T01:30:04.594Z,20
2017-07-08T01:30:14.595Z,20
2017-07-08T01:30:24.585Z,19.9
2017-07-08T01:30:33.911Z,19.9
2017-07-08T01:30:44.238Z,19.9
2017-07-08T01:30:54.571Z,19.9
2017-07-08T01:31:04.234Z,19.9
2017-07-08T01:31:14.229Z,19.9
2017-07-08T01:31:23.891Z,19.9
2017-07-08T01:31:34.884Z,19.9
2017-07-08T01:31:44.219Z,19.9
2017-07-08T01:31:54.210Z,19.9
2017-07-08T01:32:04.200Z,19.9
2017-07-08T01:32:14.197Z,19.9
2017-07-08T01:32:23.856Z,19.9
2017-07-08T01:32:34.187Z,19.9
2017-07-08T01:32:44.186Z,19.9
2017-07-08T01:32:54.519Z,19.9
2017-07-08T01:33:04.509Z,19.9
2017-07-08T01:33:14.840Z,19.9
2017-07-08T01:33:24.162Z,19.9
2017-07-08T01:33:34.491Z,19.9
2017-07-08T01:33:44.155Z,19.9
2017-07-08T01:33:54.498Z,20
2017-07-08T01:34:03.811Z,19.9
2017-07-08T01:34:14.477Z,19.9
2017-07-08T01:34:23.806Z,20
2017-07-08T01:34:33.797Z,19.9
2017-07-08T01:34:44.129Z,19.9
2017-07-08T01:34:53.791Z,19.9
2017-07-08T01:35:04.455Z,19.9
2017-07-08T01:35:14.447Z,19.9
2017-07-08T01:35:24.437Z,19.9
2017-07-08T01:35:34.103Z,19.9
2017-07-08T01:35:44.095Z,19.9
2017-07-08T01:35:54.426Z,19.9
2017-07-08T01:36:04.091Z,19.9
2017-07-08T01:36:14.082Z,19.9
2017-07-08T01:36:24.414Z,19.9
2017-07-08T01:36:34.411Z,19.9
2017-07-08T01:36:44.408Z,19.9
2017-07-08T01:36:54.066Z,19.9
2017-07-08T01:37:04.183Z,19.9
2017-07-08T01:37:13.720Z,19.9
2017-07-08T01:37:24.053Z,19.9
2017-07-08T01:37:33.711Z,19.9
2017-07-08T01:37:43.705Z,19.8
2017-07-08T01:37:54.037Z,19.9
2017-07-08T01:38:04.364Z,19.9
2017-07-08T01:38:14.025Z,19.9
2017-07-08T01:38:24.018Z,19.9
2017-07-08T01:38:34.024Z,19.9
2017-07-08T01:38:44.677Z,19.9
2017-07-08T01:38:54.005Z,19.9
2017-07-08T01:39:04.002Z,19.9
2017-07-08T01:39:13.663Z,19.9
2017-07-08T01:39:24.686Z,19.9
2017-07-08T01:39:33.986Z,19.9
2017-07-08T01:39:43.984Z,19.9
2017-07-08T01:39:53.651Z,19.9
2017-07-08T01:40:04.308Z,19.9
2017-07-08T01:40:13.965Z,19.9
2017-07-08T01:40:23.964Z,19.8
2017-07-08T01:40:33.961Z,19.9
2017-07-08T01:40:44.291Z,19.9
2017-07-08T01:40:53.953Z,19.8
2017-07-08T01:41:03.944Z,19.9
2017-07-08T01:41:14.276Z,19.9
2017-07-08T01:41:23.598Z,19.8
2017-07-08T01:41:33.596Z,19.8
2017-07-08T01:41:44.596Z,19.9
2017-07-08T01:41:54.256Z,19.8
2017-07-08T01:42:03.917Z,19.8
2017-07-08T01:42:13.915Z,19.8
2017-07-08T01:42:23.910Z,19.8
2017-07-08T01:42:33.901Z,19.8
2017-07-08T01:42:43.891Z,19.8
2017-07-08T01:42:54.562Z,19.8
2017-07-08T01:43:03.887Z,19.8
2017-07-08T01:43:13.887Z,19.8
2017-07-08T01:43:23.877Z,19.8
2017-07-08T01:43:34.539Z,19.9
2017-07-08T01:43:44.203Z,19.8
2017-07-08T01:43:54.198Z,19.8
2017-07-08T01:44:03.524Z,19.8
2017-07-08T01:44:14.190Z,19.8
2017-07-08T01:44:23.849Z,19.8
2017-07-08T01:44:33.506Z,19.8
2017-07-08T01:44:44.177Z,19.8
2017-07-08T01:44:54.168Z,19.8
2017-07-08T01:45:03.494Z,19.8
2017-07-08T01:45:14.494Z,19.8
2017-07-08T01:45:23.825Z,19.8
2017-07-08T01:45:34.150Z,19.8
2017-07-08T01:45:44.145Z,19.8
2017-07-08T01:45:54.144Z,19.8
2017-07-08T01:46:04.135Z,19.8
2017-07-08T01:46:13.800Z,19.8
2017-07-08T01:46:23.458Z,19.8
2017-07-08T01:46:33.790Z,19.8
2017-07-08T01:46:44.115Z,19.8
2017-07-08T01:46:53.777Z,19.8
2017-07-08T01:47:04.105Z,19.8
2017-07-08T01:47:14.101Z,19.8
2017-07-08T01:47:23.767Z,19.8
2017-07-08T01:47:33.420Z,19.8
2017-07-08T01:47:44.085Z,19.8
2017-07-08T01:47:53.748Z,19.8
2017-07-08T01:48:03.746Z,19.8
2017-07-08T01:48:14.409Z,19.8
2017-07-08T01:48:23.736Z,19.8
2017-07-08T01:48:33.730Z,19.8
2017-07-08T01:48:44.055Z,19.8
2017-07-08T01:48:54.060Z,19.8
2017-07-08T01:49:03.382Z,19.8
2017-07-08T01:49:13.760Z,19.8
2017-07-08T01:49:24.054Z,19.8
2017-07-08T01:49:34.037Z,19.8
2017-07-08T01:49:44.027Z,19.8
2017-07-08T01:49:53.352Z,19.8
2017-07-08T01:50:03.352Z,19.8
2017-07-08T01:50:13.347Z,19.8
2017-07-08T01:50:24.008Z,19.8
2017-07-08T01:50:33.668Z,19.8
2017-07-08T01:50:44.002Z,19.8
2017-07-08T01:50:53.998Z,19.8
2017-07-08T01:51:03.656Z,19.8
2017-07-08T01:51:13.650Z,19.9
2017-07-08T01:51:23.315Z,19.8
2017-07-08T01:51:33.639Z,19.8
2017-07-08T01:51:43.304Z,19.8
2017-07-08T01:51:53.299Z,19.8
2017-07-08T01:52:03.622Z,19.8
2017-07-08T01:52:13.624Z,19.8
2017-07-08T01:52:23.956Z,19.8
2017-07-08T01:52:34.303Z,19.8
2017-07-08T01:52:43.607Z,19.8
2017-07-08T01:52:53.939Z,19.8
2017-07-08T01:53:03.597Z,19.8
2017-07-08T01:53:13.600Z,19.8
2017-07-08T01:53:23.928Z,19.8
2017-07-08T01:53:33.587Z,19.8
2017-07-08T01:53:43.585Z,19.8
2017-07-08T01:53:53.908Z,19.8
2017-07-08T01:54:03.907Z,19.8
2017-07-08T01:54:13.570Z,19.7
2017-07-08T01:54:23.898Z,19.8
2017-07-08T01:54:33.556Z,19.8
2017-07-08T01:54:43.883Z,19.8
2017-07-08T01:54:53.548Z,19.8
2017-07-08T01:55:03.874Z,19.8
2017-07-08T01:55:13.200Z,19.8
2017-07-08T01:55:24.225Z,19.8
2017-07-08T01:55:33.862Z,19.8
2017-07-08T01:55:43.523Z,19.7
2017-07-08T01:55:53.515Z,19.7
2017-07-08T01:56:03.849Z,19.7
2017-07-08T01:56:13.507Z,19.7
2017-07-08T01:56:23.510Z,19.7
2017-07-08T01:56:33.500Z,19.7
2017-07-08T01:56:43.494Z,19.7
2017-07-08T01:56:53.827Z,19.7
2017-07-08T01:57:03.145Z,19.7
2017-07-08T01:57:13.481Z,19.7
2017-07-08T01:57:23.139Z,19.7
2017-07-08T01:57:34.185Z,19.7
2017-07-08T01:57:43.800Z,19.7
2017-07-08T01:57:53.795Z,19.7
2017-07-08T01:58:03.456Z,19.7
2017-07-08T01:58:13.114Z,19.7
2017-07-08T01:58:23.111Z,19.7
2017-07-08T01:58:33.101Z,19.7
2017-07-08T01:58:43.105Z,19.7
2017-07-08T01:58:53.430Z,19.7
2017-07-08T01:59:03.763Z,19.7
2017-07-08T01:59:13.427Z,19.7
2017-07-08T01:59:23.750Z,19.7
2017-07-08T01:59:33.419Z,19.7
2017-07-08T01:59:43.405Z,19.7
2017-07-08T01:59:53.415Z,19.7
2017-07-08T02:00:03.069Z,19.7
2017-07-08T02:00:13.396Z,19.7
2017-07-08T02:00:23.393Z,19.7
2017-07-08T02:00:33.388Z,19.7
2017-07-08T02:00:43.712Z,19.7
2017-07-08T02:00:53.036Z,19.7
2017-07-08T02:01:03.038Z,19.6
2017-07-08T02:01:14.382Z,19.6
2017-07-08T02:01:23.026Z,19.6
2017-07-08T02:01:33.691Z,19.7
2017-07-08T02:01:43.353Z,19.7
2017-07-08T02:01:53.678Z,19.6
2017-07-08T02:02:03.338Z,19.7
2017-07-08T02:02:13.338Z,19.6
2017-07-08T02:02:23.997Z,19.6
2017-07-08T02:02:32.996Z,19.6
2017-07-08T02:02:42.989Z,19.6
2017-07-08T02:02:53.986Z,19.6
2017-07-08T02:03:03.306Z,19.7
2017-07-08T02:03:13.648Z,19.6
2017-07-08T02:03:23.643Z,19.6
2017-07-08T02:03:33.302Z,19.7
2017-07-08T02:03:42.962Z,19.6
2017-07-08T02:03:52.959Z,19.6
2017-07-08T02:04:03.615Z,19.7
2017-07-08T02:04:13.614Z,19.6
2017-07-08T02:04:23.275Z,19.6
2017-07-08T02:04:33.272Z,19.6
2017-07-08T02:04:43.268Z,19.6
2017-07-08T02:04:53.264Z,19.6
2017-07-08T02:05:02.918Z,19.6
2017-07-08T02:05:13.589Z,19.6
2017-07-08T02:05:23.583Z,19.6
2017-07-08T02:05:33.575Z,19.6
2017-07-08T02:05:43.568Z,19.6
2017-07-08T02:05:53.896Z,19.6
2017-07-08T02:06:03.221Z,19.6
2017-07-08T02:06:13.893Z,19.6
2017-07-08T02:06:23.555Z,19.5
2017-07-08T02:06:33.880Z,19.6
2017-07-08T02:06:43.204Z,19.6
2017-07-08T02:06:53.872Z,19.6
2017-07-08T02:07:03.197Z,19.6
2017-07-08T02:07:13.526Z,19.6
2017-07-08T02:07:23.525Z,19.5
2017-07-08T02:07:32.847Z,19.6
2017-07-08T02:07:43.180Z,19.6
2017-07-08T02:07:52.839Z,19.6
2017-07-08T02:08:02.831Z,19.6
2017-07-08T02:08:13.628Z,19.6
2017-07-08T02:08:23.162Z,19.6
2017-07-08T02:08:32.817Z,19.6
2017-07-08T02:08:42.811Z,19.6
2017-07-08T02:08:53.149Z,19.6
2017-07-08T02:09:03.136Z,19.6
2017-07-08T02:09:13.135Z,19.6
2017-07-08T02:09:22.797Z,19.6
2017-07-08T02:09:33.175Z,19.6
2017-07-08T02:09:42.789Z,19.6
2017-07-08T02:09:53.118Z,19.6
2017-07-08T02:10:02.777Z,19.6
2017-07-08T02:10:12.773Z,19.6
2017-07-08T02:10:22.771Z,19.6
2017-07-08T02:10:33.096Z,19.6
2017-07-08T02:10:43.090Z,19.6
2017-07-08T02:10:52.750Z,19.6
2017-07-08T02:11:03.076Z,19.6
2017-07-08T02:11:13.078Z,19.6
2017-07-08T02:11:22.739Z,19.6
2017-07-08T02:11:33.402Z,19.6
2017-07-08T02:11:43.779Z,19.6
2017-07-08T02:11:52.723Z,19.6
2017-07-08T02:12:03.053Z,19.5
2017-07-08T02:12:13.385Z,19.5
2017-07-08T02:12:23.378Z,19.5
2017-07-08T02:12:33.041Z,19.5
2017-07-08T02:12:43.034Z,19.5
2017-07-08T02:12:53.028Z,19.6
2017-07-08T02:13:03.025Z,19.6
2017-07-08T02:13:13.352Z,19.6
2017-07-08T02:13:22.682Z,19.6